Time;durP1;ratioP1;P1;durP2;ratioP2;P2;SDS_P1;SDS_P2;PMS_P1;PMS_P2;Temp;Humidity;BMP_temperature;BMP_pressure;BME280_temperature;BME280_humidity;BME280_pressure;Samples;Min_cycle;Max_cycle;Signal;HPM_P1;HPM_P2
2021/03/26 00:00:44;;;;;;;8.80;5.03;;;;;;;11.80;42.98;96063.69;5020560;28;20191;-82
2021/03/26 00:03:13;;;;;;;7.73;5.13;;;;;;;11.79;43.41;96063.88;5011063;28;20289;-82
2021/03/26 00:05:39;;;;;;;8.73;5.20;;;;;;;11.76;43.06;96068.41;5026934;28;20735;-83
2021/03/26 00:08:10;;;;;;;6.10;5.17;;;;;;;11.72;43.45;96066.31;5031438;28;20320;-82
2021/03/26 00:10:36;;;;;;;8.97;5.07;;;;;;;11.68;43.80;96060.72;5015409;28;20226;-82
2021/03/26 00:13:02;;;;;;;6.70;5.33;;;;;;;11.67;43.92;96064.25;5016092;28;20602;-81
2021/03/26 00:15:28;;;;;;;7.77;5.00;;;;;;;11.66;43.79;96057.50;5031395;28;20624;-84
2021/03/26 00:17:55;;;;;;;7.23;4.83;;;;;;;11.68;43.88;96062.47;5027901;28;20226;-82
2021/03/26 00:20:22;;;;;;;6.40;4.90;;;;;;;11.69;43.98;96057.16;5024074;28;20225;-83
2021/03/26 00:22:50;;;;;;;6.37;5.00;;;;;;;11.69;44.20;96059.72;5028957;28;20226;-83
2021/03/26 00:25:16;;;;;;;7.17;4.40;;;;;;;11.67;44.40;96053.94;5018145;28;20191;-84
2021/03/26 00:27:42;;;;;;;5.87;4.57;;;;;;;11.62;43.75;96063.97;5024546;28;20223;-83
2021/03/26 00:30:10;;;;;;;5.90;4.97;;;;;;;11.49;44.51;96063.72;5011435;28;20300;-84
2021/03/26 00:32:37;;;;;;;10.23;4.90;;;;;;;11.39;44.89;96065.69;5014938;28;20226;-82
2021/03/26 00:35:05;;;;;;;6.60;4.47;;;;;;;11.39;44.82;96074.22;5030493;28;20644;-82
2021/03/26 00:37:32;;;;;;;6.80;4.57;;;;;;;11.36;45.09;96064.25;5024207;28;20230;-82
2021/03/26 00:39:58;;;;;;;6.17;5.13;;;;;;;11.37;45.56;96065.06;5010340;28;20194;-82
2021/03/26 00:42:24;;;;;;;6.57;5.20;;;;;;;11.36;45.13;96066.84;5020703;28;20198;-81
2021/03/26 00:44:51;;;;;;;9.73;4.97;;;;;;;11.38;45.16;96074.41;5029291;28;20229;-82
2021/03/26 00:47:17;;;;;;;6.63;4.90;;;;;;;11.37;45.31;96073.59;5010052;28;20768;-82
2021/03/26 00:49:43;;;;;;;7.00;4.97;;;;;;;11.35;45.84;96067.03;5010435;28;20226;-82
2021/03/26 00:52:09;;;;;;;6.90;4.80;;;;;;;11.36;45.20;96071.19;5028938;28;20272;-83
2021/03/26 00:54:36;;;;;;;6.63;5.07;;;;;;;11.36;45.42;96071.19;5022579;28;20250;-81
2021/03/26 00:57:03;;;;;;;9.03;5.37;;;;;;;11.37;45.18;96072.78;5026888;28;20284;-81
2021/03/26 00:59:29;;;;;;;7.40;4.87;;;;;;;11.35;45.44;96065.22;5022117;28;20226;-82
2021/03/26 01:01:58;;;;;;;7.07;4.70;;;;;;;11.31;45.51;96066.56;5026754;28;20230;-82
2021/03/26 01:04:24;;;;;;;6.43;4.77;;;;;;;11.29;45.54;96068.50;5029367;28;20217;-84
2021/03/26 01:06:51;;;;;;;5.70;4.37;;;;;;;11.28;45.82;96064.31;5030339;28;20959;-84
2021/03/26 01:09:18;;;;;;;8.40;5.10;;;;;;;11.29;45.45;96063.34;5030960;28;20240;-84
2021/03/26 01:11:53;;;;;;;7.87;5.17;;;;;;;11.32;45.61;96067.38;5031226;28;20236;-81
2021/03/26 01:14:24;;;;;;;6.50;4.40;;;;;;;11.30;46.02;96067.53;5026485;28;20304;-82
2021/03/26 01:16:50;;;;;;;7.80;5.20;;;;;;;11.26;46.17;96060.28;5010253;28;20598;-82
2021/03/26 01:19:19;;;;;;;5.23;4.70;;;;;;;11.26;46.09;96062.88;5012795;28;20198;-81
2021/03/26 01:21:47;;;;;;;7.37;5.00;;;;;;;11.21;45.98;96060.78;5030240;28;20202;-80
2021/03/26 01:24:16;;;;;;;6.90;4.53;;;;;;;11.22;46.30;96061.59;5027030;28;20229;-82
2021/03/26 01:26:46;;;;;;;7.50;4.83;;;;;;;11.20;46.58;96056.59;5010775;28;20634;-83
2021/03/26 01:29:12;;;;;;;5.03;4.47;;;;;;;11.19;46.57;96055.00;5027770;28;20622;-83
2021/03/26 01:31:45;;;;;;;5.83;4.30;;;;;;;11.10;46.26;96052.66;5011238;28;20230;-84
2021/03/26 01:34:12;;;;;;;5.87;4.60;;;;;;;11.10;46.43;96050.06;5031292;28;20218;-81
2021/03/26 01:36:41;;;;;;;5.57;4.43;;;;;;;11.05;46.70;96061.69;5031571;28;20228;-83
2021/03/26 01:39:10;;;;;;;5.60;4.23;;;;;;;11.00;46.60;96063.94;5029239;28;20225;-84
2021/03/26 01:41:42;;;;;;;6.07;4.33;;;;;;;10.98;46.75;96058.16;5011171;28;20582;-82
2021/03/26 01:44:10;;;;;;;6.00;4.20;;;;;;;10.96;46.42;96052.38;5012766;28;20227;-82
2021/03/26 01:46:36;;;;;;;5.93;4.53;;;;;;;10.94;47.04;96061.25;5027792;28;20260;-85
2021/03/26 01:49:04;;;;;;;6.80;4.37;;;;;;;10.88;47.06;96054.19;5015823;28;20195;-83
2021/03/26 01:51:35;;;;;;;5.77;4.63;;;;;;;10.84;47.27;96055.47;5033957;28;20202;-84
2021/03/26 01:54:02;;;;;;;6.73;4.77;;;;;;;10.81;47.13;96055.81;5034140;28;20226;-83
2021/03/26 01:56:29;;;;;;;5.37;4.60;;;;;;;10.80;47.31;96056.78;5034123;28;20230;-85
2021/03/26 01:58:55;;;;;;;6.80;4.10;;;;;;;10.78;47.21;96051.78;5033298;28;20248;-83
2021/03/26 02:01:25;;;;;;;5.50;4.33;;;;;;;10.75;47.42;96044.41;5013302;28;20318;-83
2021/03/26 02:03:53;;;;;;;5.23;4.03;;;;;;;10.71;47.84;96041.34;5031264;28;20195;-83
2021/03/26 02:06:22;;;;;;;6.37;4.20;;;;;;;10.72;47.67;96042.97;5033459;28;20234;-84
2021/03/26 02:08:51;;;;;;;5.90;4.50;;;;;;;10.70;47.72;96041.53;5021281;28;20233;-83
2021/03/26 02:11:22;;;;;;;4.93;4.43;;;;;;;10.64;47.97;96035.25;5031359;28;20226;-83
2021/03/26 02:13:50;;;;;;;5.07;4.07;;;;;;;10.65;47.44;96039.44;5015278;28;20230;-82
2021/03/26 02:16:18;;;;;;;6.17;4.67;;;;;;;10.63;48.20;96036.22;5013066;28;20226;-81
2021/03/26 02:18:45;;;;;;;6.03;4.70;;;;;;;10.65;47.80;96041.22;5029663;28;20225;-83
2021/03/26 02:21:15;;;;;;;6.57;4.53;;;;;;;10.64;47.96;96040.41;5015190;28;20883;-85
2021/03/26 02:23:43;;;;;;;8.17;5.37;;;;;;;10.63;48.03;96038.00;5029036;28;20237;-84
2021/03/26 02:26:17;;;;;;;7.20;4.63;;;;;;;10.60;47.78;96039.13;5033676;28;20229;-85
2021/03/26 02:28:44;;;;;;;5.30;4.80;;;;;;;10.65;48.08;96041.22;5018373;28;20230;-84
2021/03/26 02:31:11;;;;;;;4.90;4.40;;;;;;;10.65;48.22;96047.16;5029885;28;20202;-83
2021/03/26 02:33:37;;;;;;;5.17;4.60;;;;;;;10.64;48.50;96037.81;5019103;28;20223;-81
2021/03/26 02:36:46;;;;;;;4.93;4.43;;;;;;;10.57;48.79;96039.47;5012776;28;20230;-85
2021/03/26 02:39:19;;;;;;;7.67;4.87;;;;;;;10.53;48.81;96042.53;5028054;28;20253;-83
2021/03/26 02:41:48;;;;;;;5.57;4.30;;;;;;;10.49;48.39;96038.69;5012855;28;20265;-82
2021/03/26 02:44:23;;;;;;;6.23;4.80;;;;;;;10.48;48.87;96044.78;5031805;28;20816;-84
2021/03/26 02:47:01;;;;;;;5.80;4.47;;;;;;;10.47;49.03;96045.75;5031370;28;20233;-83
2021/03/26 02:49:34;;;;;;;5.53;4.37;;;;;;;10.47;49.22;96045.75;5026782;28;20277;-84
2021/03/26 02:52:10;;;;;;;6.40;4.13;;;;;;;10.31;49.43;96047.41;5012542;28;20205;-85
2021/03/26 02:54:42;;;;;;;6.37;4.70;;;;;;;10.23;49.87;96060.25;5015797;28;20226;-84
2021/03/26 02:57:11;;;;;;;8.00;4.80;;;;;;;10.29;49.70;96053.69;5025895;28;20610;-83
2021/03/26 02:59:44;;;;;;;5.67;4.97;;;;;;;10.30;49.38;96060.44;5026238;28;20749;-85
2021/03/26 03:02:13;;;;;;;5.67;4.30;;;;;;;10.33;48.86;96068.63;5013664;28;20227;-85
2021/03/26 03:04:45;;;;;;;6.67;4.80;;;;;;;10.32;48.91;96069.59;5018405;28;20226;-83
2021/03/26 03:07:20;;;;;;;7.90;4.17;;;;;;;10.31;48.46;96067.19;5018696;28;20241;-84
2021/03/26 03:09:50;;;;;;;6.63;4.50;;;;;;;10.28;48.68;96057.22;5019527;28;20202;-83
2021/03/26 03:12:21;;;;;;;5.57;4.40;;;;;;;10.27;48.69;96058.19;5012792;28;20322;-84
2021/03/26 03:14:52;;;;;;;4.83;4.33;;;;;;;10.20;48.52;96055.44;5019112;28;20222;-84
2021/03/26 03:17:23;;;;;;;7.93;4.47;;;;;;;10.19;48.44;96061.59;5032094;28;20618;-84
2021/03/26 03:19:55;;;;;;;5.33;4.43;;;;;;;10.21;48.56;96062.19;5023720;28;20285;-84
2021/03/26 03:22:28;;;;;;;5.30;4.67;;;;;;;10.12;49.15;96060.56;5028449;28;20226;-84
2021/03/26 03:25:00;;;;;;;5.50;4.67;;;;;;;10.08;49.02;96055.91;5032150;28;20202;-83
2021/03/26 03:27:36;;;;;;;5.90;4.40;;;;;;;10.04;48.86;96050.28;5031977;28;20230;-84
2021/03/26 03:30:19;;;;;;;5.03;4.40;;;;;;;10.00;48.93;96046.44;5031297;28;20225;-85
2021/03/26 03:32:53;;;;;;;5.73;4.70;;;;;;;10.00;48.86;96052.41;5030695;28;20222;-83
2021/03/26 03:35:26;;;;;;;6.13;4.83;;;;;;;9.96;49.19;96050.28;5031611;28;20304;-83
2021/03/26 03:38:04;;;;;;;6.67;4.20;;;;;;;10.00;49.06;96047.25;5027133;28;20218;-85
2021/03/26 03:40:36;;;;;;;5.07;3.63;;;;;;;10.02;48.86;96042.72;5012597;28;20732;-85
2021/03/26 03:43:07;;;;;;;5.20;4.13;;;;;;;9.99;48.53;96040.50;5016890;28;20194;-84
2021/03/26 03:45:41;;;;;;;7.57;4.60;;;;;;;10.03;48.42;96034.03;5032151;28;20268;-84
2021/03/26 03:48:14;;;;;;;7.17;4.43;;;;;;;10.01;49.01;96035.16;5026630;28;20226;-85
2021/03/26 03:50:45;;;;;;;4.67;3.67;;;;;;;9.96;48.90;96034.88;5026219;28;20226;-85
2021/03/26 03:53:18;;;;;;;7.57;4.40;;;;;;;9.95;48.91;96035.81;5028036;28;20226;-84
2021/03/26 03:55:52;;;;;;;7.97;4.00;;;;;;;9.95;49.34;96034.06;5031378;28;20238;-83
2021/03/26 03:58:25;;;;;;;7.47;3.80;;;;;;;9.96;48.95;96040.81;5031141;28;20198;-85
2021/03/26 04:00:58;;;;;;;7.47;4.87;;;;;;;10.02;48.85;96044.47;5015789;28;20195;-84
2021/03/26 04:03:31;;;;;;;6.17;4.47;;;;;;;9.96;48.61;96027.16;5012012;28;20242;-83
2021/03/26 04:06:02;;;;;;;7.50;4.63;;;;;;;9.92;49.12;96029.22;5026071;28;20239;-84
2021/03/26 04:08:33;;;;;;;5.10;4.60;;;;;;;9.90;49.09;96026.00;5031461;28;20220;-83
2021/03/26 04:11:07;;;;;;;5.53;4.50;;;;;;;9.81;49.40;96019.28;5030141;28;20226;-83
2021/03/26 04:13:39;;;;;;;6.70;4.10;;;;;;;9.66;49.84;96031.13;5011545;28;20237;-83
2021/03/26 04:16:05;;;;;;;7.57;4.13;;;;;;;9.61;49.35;96034.22;5027269;28;20221;-84
2021/03/26 04:18:36;;;;;;;5.07;3.87;;;;;;;9.70;49.35;96038.38;5021062;28;20191;-83
2021/03/26 04:21:08;;;;;;;5.87;4.33;;;;;;;9.79;49.40;96041.78;5027050;28;20224;-85
2021/03/26 04:23:39;;;;;;;4.37;3.90;;;;;;;9.86;49.57;96045.28;5021686;28;20234;-83
2021/03/26 04:26:18;;;;;;;3.77;3.40;;;;;;;9.88;49.16;96045.13;5012489;28;20234;-84
2021/03/26 04:28:48;;;;;;;5.47;4.27;;;;;;;9.67;49.64;96050.75;5031304;28;20233;-83
2021/03/26 04:31:22;;;;;;;7.17;4.03;;;;;;;9.63;50.04;96045.13;5013777;28;20208;-85
2021/03/26 04:33:48;;;;;;;4.53;3.90;;;;;;;9.63;49.68;96049.44;5016481;28;20225;-85
2021/03/26 04:36:24;;;;;;;4.27;3.33;;;;;;;9.67;50.08;96056.69;5032331;28;20230;-85
2021/03/26 04:38:58;;;;;;;5.57;3.73;;;;;;;9.66;49.78;96055.09;5030661;28;20217;-85
2021/03/26 04:41:32;;;;;;;4.20;3.80;;;;;;;9.72;48.97;96058.00;5012532;28;20749;-84
2021/03/26 04:44:06;;;;;;;5.33;3.90;;;;;;;9.74;49.57;96051.72;5015950;28;20279;-85
2021/03/26 04:46:39;;;;;;;6.63;4.20;;;;;;;9.70;49.55;96047.88;5031789;28;20226;-85
2021/03/26 04:49:09;;;;;;;5.40;3.70;;;;;;;9.57;50.25;96055.25;5028629;28;20592;-84
2021/03/26 04:51:39;;;;;;;7.20;3.90;;;;;;;9.54;49.90;96064.06;5012974;28;20199;-85
2021/03/26 04:54:13;;;;;;;5.70;4.13;;;;;;;9.49;49.64;96053.47;5025003;28;20309;-85
2021/03/26 04:56:45;;;;;;;6.33;4.10;;;;;;;9.39;50.32;96057.16;5011981;28;20257;-85
2021/03/26 04:59:14;;;;;;;5.20;4.10;;;;;;;9.27;50.63;96049.72;5013268;28;20279;-85
2021/03/26 05:01:43;;;;;;;5.60;3.83;;;;;;;9.14;50.28;96046.78;5012108;28;20238;-85
2021/03/26 05:04:14;;;;;;;5.40;3.73;;;;;;;9.17;50.89;96049.06;5016609;28;20194;-85
2021/03/26 05:06:44;;;;;;;4.37;3.97;;;;;;;9.02;51.37;96050.63;5031929;28;20230;-85
2021/03/26 05:09:14;;;;;;;4.87;4.37;;;;;;;8.99;51.26;96050.91;5028345;28;20222;-85
2021/03/26 05:11:44;;;;;;;5.97;4.10;;;;;;;9.02;51.18;96048.03;5011891;28;20227;-85
2021/03/26 05:14:15;;;;;;;7.53;4.93;;;;;;;9.00;51.71;96047.41;5017280;28;20233;-85
2021/03/26 05:16:49;;;;;;;5.40;3.83;;;;;;;9.10;51.26;96053.19;5018130;28;20292;-85
2021/03/26 05:19:18;;;;;;;5.20;4.00;;;;;;;9.17;51.49;96050.81;5017115;28;20780;-85
2021/03/26 05:21:50;;;;;;;5.43;3.87;;;;;;;9.19;51.45;96052.28;5034153;28;20567;-85
2021/03/26 05:24:21;;;;;;;5.47;4.03;;;;;;;9.15;51.23;96058.69;5035704;28;20230;-85
2021/03/26 05:26:48;;;;;;;7.40;3.77;;;;;;;9.19;51.17;96051.47;5025065;28;20702;-85
2021/03/26 05:29:17;;;;;;;4.87;4.07;;;;;;;9.02;51.56;96053.19;5026305;28;20233;-85
2021/03/26 05:31:57;;;;;;;6.37;4.40;;;;;;;8.99;51.59;96061.19;5026488;28;20749;-86
2021/03/26 05:34:28;;;;;;;4.67;4.00;;;;;;;9.03;52.00;96052.22;5016205;28;20372;-85
2021/03/26 05:37:07;;;;;;;4.57;4.03;;;;;;;9.11;51.21;96054.81;5032919;28;20210;-86
2021/03/26 05:39:36;;;;;;;9.03;4.33;;;;;;;9.10;50.92;96063.47;5021044;28;20253;-85
2021/03/26 05:42:17;;;;;;;5.80;3.73;;;;;;;9.09;51.47;96054.16;5014676;28;20889;-86
2021/03/26 05:45:02;;;;;;;6.10;3.77;;;;;;;9.00;51.76;96052.53;5015819;28;20269;-85
2021/03/26 05:47:40;;;;;;;4.57;3.70;;;;;;;9.00;51.53;96060.25;5020219;28;20633;-85
2021/03/26 05:50:25;;;;;;;4.77;4.00;;;;;;;9.05;52.22;96052.84;5018138;28;20240;-85
2021/03/26 05:53:14;;;;;;;6.33;3.83;;;;;;;9.07;52.45;96050.13;5027699;28;20222;-86
2021/03/26 05:55:48;;;;;;;5.93;4.20;;;;;;;9.10;52.21;96055.75;5020311;28;20226;-85
2021/03/26 05:58:33;;;;;;;5.63;3.70;;;;;;;9.05;52.33;96050.28;5033134;28;20251;-86
2021/03/26 06:01:27;;;;;;;6.47;3.70;;;;;;;9.10;52.14;96048.06;5034075;28;20206;-85
2021/03/26 06:04:38;;;;;;;7.03;3.70;;;;;;;9.15;52.17;96048.41;5027585;28;20229;-85
2021/03/26 06:07:25;;;;;;;7.20;3.90;;;;;;;9.22;52.31;96049.41;5012179;28;20607;-87
2021/03/26 06:10:09;;;;;;;7.07;3.87;;;;;;;9.28;52.06;96046.19;5014469;28;20609;-88
2021/03/26 06:13:06;;;;;;;5.40;3.73;;;;;;;9.30;51.61;96057.09;5031636;28;20347;-87
2021/03/26 06:16:01;;;;;;;6.53;4.00;;;;;;;9.30;51.42;96051.97;5012731;28;20222;-87
2021/03/26 06:18:53;;;;;;;8.53;3.77;;;;;;;9.41;51.74;96052.66;5016897;28;20218;-88
2021/03/26 06:21:28;;;;;;;4.20;3.37;;;;;;;9.39;51.43;96052.81;4997774;28;20237;-87
2021/03/26 06:24:41;;;;;;;5.90;4.07;;;;;;;9.41;51.43;96055.22;5022078;28;20230;-88
2021/03/26 06:27:14;;;;;;;3.80;3.40;;;;;;;9.44;50.86;96047.97;4986115;28;20565;-88
2021/03/26 06:30:03;;;;;;;20.13;14.37;;;;;;;9.60;51.01;96054.94;5026923;28;20237;-87
2021/03/26 06:33:14;;;;;;;12.17;8.40;;;;;;;9.79;51.13;96049.50;5029383;28;20230;-85
2021/03/26 06:36:03;;;;;;;9.17;4.20;;;;;;;9.82;50.36;96046.56;5020564;28;20222;-85
2021/03/26 06:38:45;;;;;;;9.27;4.30;;;;;;;9.86;50.40;96044.50;5018890;28;20222;-85
2021/03/26 06:41:17;;;;;;;8.57;4.27;;;;;;;9.96;50.34;96042.56;5020666;28;20234;-85
2021/03/26 06:44:12;;;;;;;9.67;3.90;;;;;;;10.16;50.21;96043.84;5013710;28;20227;-83
2021/03/26 06:46:48;;;;;;;9.77;4.53;;;;;;;10.34;49.44;96038.56;4973741;28;20232;-85
2021/03/26 06:49:27;;;;;;;9.53;4.70;;;;;;;10.37;48.80;96031.31;5031961;28;20618;-85
2021/03/26 06:52:12;;;;;;;7.37;4.37;;;;;;;10.52;48.98;96030.63;5033426;28;20627;-85
2021/03/26 06:55:25;;;;;;;14.80;4.50;;;;;;;10.76;47.66;96034.91;5028475;28;20218;-84
2021/03/26 06:58:17;;;;;;;8.90;4.07;;;;;;;11.04;47.83;96033.50;5023080;28;20249;-84
2021/03/26 07:01:15;;;;;;;5.00;4.00;;;;;;;11.22;46.87;96030.66;5023687;28;20249;-83
2021/03/26 07:04:15;;;;;;;6.37;3.73;;;;;;;11.32;46.25;96029.50;4995708;28;20221;-86
2021/03/26 07:07:06;;;;;;;5.27;3.73;;;;;;;11.51;45.73;96023.09;5013007;28;20223;-85
2021/03/26 07:09:48;;;;;;;7.80;3.60;;;;;;;11.74;45.72;96023.06;5026016;28;20226;-83
2021/03/26 07:12:29;;;;;;;9.43;4.10;;;;;;;11.97;45.34;96025.69;5026355;28;20596;-83
2021/03/26 07:15:01;;;;;;;8.70;4.20;;;;;;;12.20;45.08;96018.69;5020080;28;20688;-85
2021/03/26 07:18:01;;;;;;;6.97;3.43;;;;;;;12.16;44.47;96019.22;5028316;28;20229;-82
2021/03/26 07:21:06;;;;;;;5.27;3.30;;;;;;;12.45;44.64;96014.91;5016459;28;20224;-85
2021/03/26 07:24:12;;;;;;;8.00;3.57;;;;;;;12.63;43.85;96018.94;5011571;28;20226;-84
2021/03/26 07:26:49;;;;;;;8.63;4.23;;;;;;;12.78;43.59;96019.72;5031188;28;20221;-83
2021/03/26 07:29:42;;;;;;;9.57;4.40;;;;;;;12.91;42.90;96012.13;5030523;28;20236;-83
2021/03/26 07:32:42;;;;;;;6.80;4.37;;;;;;;13.09;42.87;96022.88;5027990;28;20222;-81
2021/03/26 07:35:32;;;;;;;9.17;4.43;;;;;;;13.43;43.09;96021.50;5027719;28;20226;-83
2021/03/26 07:38:40;;;;;;;13.07;4.10;;;;;;;13.32;42.14;96011.63;5028357;28;20230;-84
2021/03/26 07:41:32;;;;;;;13.37;5.40;;;;;;;13.68;42.36;96007.22;5023619;28;20251;-83
2021/03/26 07:44:23;;;;;;;5.83;4.33;;;;;;;13.98;41.46;96005.31;5029495;28;20925;-84
2021/03/26 07:47:04;;;;;;;8.33;4.97;;;;;;;14.27;42.00;96006.91;5022996;28;20229;-81
2021/03/26 07:49:43;;;;;;;5.57;4.50;;;;;;;14.36;40.84;96005.78;5027999;28;20222;-83
2021/03/26 07:52:16;;;;;;;7.60;4.73;;;;;;;14.62;40.64;96006.97;5021857;28;20631;-81
2021/03/26 07:55:15;;;;;;;5.97;4.40;;;;;;;14.83;40.60;96012.03;5021332;28;20709;-84
2021/03/26 07:58:00;;;;;;;10.13;5.10;;;;;;;14.93;40.60;96009.09;5029533;28;20288;-84
2021/03/26 08:00:57;;;;;;;12.63;6.00;;;;;;;15.26;41.27;96004.03;5005921;28;20226;-84
2021/03/26 08:03:52;;;;;;;11.33;6.20;;;;;;;15.46;38.88;96000.50;5009250;28;20227;-85
2021/03/26 08:06:40;;;;;;;13.50;6.10;;;;;;;15.71;39.12;96007.78;5011575;28;20709;-84
2021/03/26 08:09:20;;;;;;;11.43;7.10;;;;;;;15.62;39.05;96006.34;4978538;28;20230;-84
2021/03/26 08:11:58;;;;;;;17.17;7.20;;;;;;;15.65;38.29;95992.97;5011001;28;20648;-84
2021/03/26 08:15:03;;;;;;;14.33;7.50;;;;;;;15.65;38.92;96000.75;5012063;28;20230;-84
2021/03/26 08:17:46;;;;;;;29.13;22.53;;;;;;;15.75;39.55;95998.59;5026254;28;20232;-85
2021/03/26 08:20:24;;;;;;;11.30;7.30;;;;;;;15.75;39.15;95993.41;5030903;28;20295;-85
2021/03/26 08:23:20;;;;;;;10.80;7.20;;;;;;;15.66;39.01;95997.97;5031039;28;20230;-85
2021/03/26 08:25:56;;;;;;;9.13;6.97;;;;;;;16.03;39.44;95991.41;5031602;28;20237;-84
2021/03/26 08:28:35;;;;;;;10.27;6.57;;;;;;;16.56;39.85;95997.34;5031040;28;20231;-85
2021/03/26 08:31:41;;;;;;;9.13;6.50;;;;;;;16.84;37.48;95991.91;5032245;28;20201;-84
2021/03/26 08:34:26;;;;;;;18.77;7.10;;;;;;;16.98;37.93;96000.44;5030897;28;20234;-85
2021/03/26 08:37:01;;;;;;;17.40;7.43;;;;;;;16.99;36.82;96001.25;5032275;28;20258;-86
2021/03/26 08:39:38;;;;;;;10.43;7.67;;;;;;;17.35;37.88;95998.88;5031602;28;20229;-85
2021/03/26 08:42:14;;;;;;;11.60;8.93;;;;;;;17.40;36.93;96003.47;5031397;28;20229;-85
2021/03/26 08:44:42;;;;;;;10.47;8.53;;;;;;;17.56;36.80;96010.78;5030460;28;20234;-86
2021/03/26 08:47:19;;;;;;;10.40;8.38;;;;;;;17.54;36.86;96005.78;5019887;28;20225;-86
2021/03/26 08:49:56;;;;;;;11.87;8.57;;;;;;;17.21;37.43;96011.16;5030873;28;20694;-85
2021/03/26 08:52:39;;;;;;;12.20;8.52;;;;;;;17.33;37.27;96003.50;5023279;28;20234;-85
2021/03/26 08:55:31;;;;;;;20.60;16.42;;;;;;;17.54;36.92;96004.97;5019822;28;20633;-85
2021/03/26 08:58:13;;;;;;;10.85;8.27;;;;;;;17.35;37.21;96003.28;5020943;28;20222;-87
2021/03/26 09:01:04;;;;;;;23.27;9.07;;;;;;;17.58;37.53;96006.16;5013485;28;20222;-86
2021/03/26 09:03:41;;;;;;;18.35;9.13;;;;;;;17.92;36.67;95999.75;5011390;28;20227;-85
2021/03/26 09:06:30;;;;;;;10.45;8.63;;;;;;;18.22;35.17;96000.72;5018083;28;20230;-86
2021/03/26 09:09:13;;;;;;;10.77;8.63;;;;;;;18.59;36.45;95999.00;5022922;28;20214;-86
2021/03/26 09:11:55;;;;;;;15.82;8.43;;;;;;;18.82;35.26;95993.16;5012525;28;20230;-86
2021/03/26 09:14:42;;;;;;;13.10;9.15;;;;;;;18.88;35.76;95992.25;5011686;28;20244;-84
2021/03/26 09:17:17;;;;;;;12.30;8.00;;;;;;;19.03;36.79;95994.53;5013443;28;20230;-86
2021/03/26 09:19:49;;;;;;;9.43;7.78;;;;;;;19.27;34.45;95998.81;5028873;28;20233;-85
2021/03/26 09:22:40;;;;;;;13.13;8.73;;;;;;;19.40;33.79;95990.03;5021649;28;20194;-85
2021/03/26 09:25:37;;;;;;;9.38;8.20;;;;;;;19.50;33.98;95981.69;5033032;28;20200;-86
2021/03/26 09:28:09;;;;;;;10.90;8.43;;;;;;;19.73;33.59;95984.38;5011857;28;20228;-86
2021/03/26 09:30:38;;;;;;;10.15;8.05;;;;;;;19.85;32.93;95977.34;5021407;28;20202;-86
2021/03/26 09:33:13;;;;;;;14.00;9.05;;;;;;;19.63;33.12;95971.84;5027419;28;20701;-86
2021/03/26 09:35:45;;;;;;;13.77;8.93;;;;;;;19.66;32.73;95970.59;5031661;28;20309;-84
2021/03/26 09:38:25;;;;;;;12.45;9.05;;;;;;;19.90;32.90;95969.63;5026698;28;20225;-86
2021/03/26 09:41:05;;;;;;;11.68;8.90;;;;;;;20.18;32.79;95962.97;5031023;28;20670;-86
2021/03/26 09:43:40;;;;;;;10.77;9.18;;;;;;;20.17;32.90;95966.59;5024967;28;20226;-86
2021/03/26 09:46:13;;;;;;;13.52;9.18;;;;;;;20.10;33.06;95964.06;5016367;28;20194;-86
2021/03/26 09:48:50;;;;;;;12.20;8.25;;;;;;;20.18;32.85;95966.38;5031517;28;20242;-86
2021/03/26 09:51:27;;;;;;;14.43;12.70;;;;;;;20.46;32.54;95959.66;5027734;28;20222;-87
2021/03/26 09:53:59;;;;;;;12.85;9.25;;;;;;;20.36;32.03;95957.63;5029709;28;20222;-86
2021/03/26 09:56:36;;;;;;;10.77;8.90;;;;;;;20.18;31.74;95957.72;5012560;28;20246;-86
2021/03/26 09:59:12;;;;;;;9.95;8.02;;;;;;;19.76;31.94;95955.19;5024336;28;20313;-86
2021/03/26 10:01:42;;;;;;;11.68;8.15;;;;;;;19.81;32.07;95957.94;5029827;28;20236;-86
2021/03/26 10:04:12;;;;;;;12.30;8.98;;;;;;;20.05;32.53;95956.13;5031176;28;20213;-86
2021/03/26 10:06:50;;;;;;;11.05;8.02;;;;;;;20.44;31.70;95953.88;5023379;28;20245;-86
2021/03/26 10:09:24;;;;;;;14.45;8.55;;;;;;;20.70;31.23;95945.53;5023595;28;20230;-87
2021/03/26 10:12:03;;;;;;;13.25;7.75;;;;;;;20.52;30.39;95953.53;5028786;28;20252;-86
2021/03/26 10:14:32;;;;;;;10.20;7.47;;;;;;;20.41;31.24;95954.31;5033461;28;20217;-86
2021/03/26 10:17:33;;;;;;;12.93;8.38;;;;;;;20.55;30.47;95945.22;5030019;28;20222;-86
2021/03/26 10:20:11;;;;;;;10.25;8.00;;;;;;;20.80;31.04;95940.50;5033186;28;20308;-86
2021/03/26 10:22:53;;;;;;;9.68;7.25;;;;;;;21.03;30.84;95953.53;5019775;28;20233;-87
2021/03/26 10:25:28;;;;;;;11.90;7.90;;;;;;;21.24;30.39;95941.63;5014635;28;20203;-86
2021/03/26 10:28:03;;;;;;;10.30;7.93;;;;;;;21.07;29.32;95943.38;5015113;28;20601;-86
2021/03/26 10:30:37;;;;;;;8.55;7.10;;;;;;;20.50;29.07;95932.03;5031569;28;20230;-86
2021/03/26 10:33:06;;;;;;;11.45;7.25;;;;;;;19.96;31.17;95934.75;5024104;28;20260;-86
2021/03/26 10:35:33;;;;;;;10.65;7.65;;;;;;;20.08;30.15;95928.72;5020376;28;20237;-86
2021/03/26 10:38:03;;;;;;;8.07;6.85;;;;;;;19.79;29.40;95928.59;5034356;28;20236;-86
2021/03/26 10:40:38;;;;;;;8.25;6.53;;;;;;;19.95;30.33;95921.91;5016447;28;20277;-85
2021/03/26 10:43:12;;;;;;;9.80;6.97;;;;;;;19.84;29.60;95925.28;5026599;28;20198;-81
2021/03/26 10:45:59;;;;;;;8.38;6.95;;;;;;;19.65;30.22;95920.16;5034322;28;20701;-82
2021/03/26 10:48:33;;;;;;;11.30;7.50;;;;;;;19.94;30.42;95917.69;5028197;28;20237;-83
2021/03/26 10:51:20;;;;;;;13.02;7.68;;;;;;;20.19;29.83;95907.03;5033565;28;20740;-84
2021/03/26 10:53:50;;;;;;;9.15;7.22;;;;;;;20.24;29.89;95905.28;5025849;28;20230;-82
2021/03/26 10:56:36;;;;;;;10.55;7.82;;;;;;;20.37;29.39;95899.06;5013659;28;20300;-84
2021/03/26 10:59:07;;;;;;;9.07;6.93;;;;;;;20.43;29.14;95895.53;5028467;28;20226;-85
2021/03/26 11:01:38;;;;;;;11.23;6.60;;;;;;;20.42;29.42;95890.53;5033668;28;20236;-84
2021/03/26 11:04:18;;;;;;;9.77;6.63;;;;;;;20.51;29.78;95884.72;5030326;28;20202;-85
2021/03/26 11:06:48;;;;;;;8.80;6.35;;;;;;;20.23;28.55;95890.63;5029281;28;20283;-85
2021/03/26 11:09:19;;;;;;;9.77;6.45;;;;;;;20.06;28.67;95881.88;5029520;28;20661;-86
2021/03/26 11:12:00;;;;;;;8.00;6.65;;;;;;;19.65;30.53;95888.81;5028985;28;20226;-85
2021/03/26 11:14:36;;;;;;;8.60;6.28;;;;;;;19.91;31.25;95882.34;5023317;28;20229;-85
2021/03/26 11:17:15;;;;;;;7.78;6.75;;;;;;;20.21;29.40;95876.97;5032565;28;20226;-85
2021/03/26 11:19:46;;;;;;;8.40;6.65;;;;;;;20.19;29.78;95873.84;5017835;28;20230;-85
2021/03/26 11:22:17;;;;;;;7.35;5.80;;;;;;;20.28;29.20;95875.06;5017028;28;20447;-87
2021/03/26 11:25:02;;;;;;;8.30;5.57;;;;;;;20.54;29.74;95865.16;5033628;28;20194;-85
2021/03/26 11:27:39;;;;;;;8.75;5.97;;;;;;;20.58;29.12;95863.66;5033080;28;20693;-82
2021/03/26 11:30:22;;;;;;;11.05;5.65;;;;;;;20.85;29.25;95856.84;5032256;28;20214;-79
2021/03/26 11:32:56;;;;;;;6.25;5.55;;;;;;;20.94;28.66;95852.84;5016305;28;20222;-84
2021/03/26 11:35:24;;;;;;;9.50;6.25;;;;;;;21.10;29.09;95850.47;5026701;28;20228;-86
2021/03/26 11:37:55;;;;;;;6.57;5.10;;;;;;;21.27;28.73;95846.09;5029839;28;20694;-85
2021/03/26 11:40:28;;;;;;;7.10;5.38;;;;;;;21.34;27.88;95851.97;5033096;28;20626;-84
2021/03/26 11:43:06;;;;;;;6.38;5.55;;;;;;;21.35;27.64;95843.09;5033168;28;20658;-83
2021/03/26 11:45:36;;;;;;;6.97;5.35;;;;;;;21.42;27.23;95838.47;5019314;28;20218;-85
2021/03/26 11:48:09;;;;;;;6.10;5.22;;;;;;;21.30;27.08;95835.13;5033157;28;20321;-83
2021/03/26 11:50:38;;;;;;;8.43;5.47;;;;;;;21.22;27.15;95822.41;5020579;28;20226;-84
2021/03/26 11:53:36;;;;;;;8.20;5.90;;;;;;;21.13;26.81;95826.44;5022645;28;20705;-84
2021/03/26 12:00:03;;;;;;;7.93;6.05;;;;;;;21.74;28.19;95814.31;4954771;28;20227;-85
2021/03/26 12:02:50;;;;;;;8.50;5.50;;;;;;;21.98;28.08;95810.44;5032370;28;20224;-85
2021/03/26 12:05:25;;;;;;;7.30;5.78;;;;;;;21.33;26.38;95805.84;5033058;28;20226;-84
2021/03/26 12:08:00;;;;;;;9.18;6.18;;;;;;;21.21;27.03;95811.16;5032531;28;20226;-83
2021/03/26 12:10:32;;;;;;;7.40;5.55;;;;;;;21.32;28.14;95805.06;5032073;28;20226;-81
2021/03/26 12:13:05;;;;;;;12.43;6.18;;;;;;;21.50;26.87;95793.53;5023027;28;20198;-82
2021/03/26 12:15:36;;;;;;;8.43;6.00;;;;;;;21.25;26.64;95801.00;5028935;28;20236;-84
2021/03/26 12:18:14;;;;;;;9.00;5.82;;;;;;;21.38;26.95;95783.13;5033512;28;20291;-86
2021/03/26 12:20:42;;;;;;;8.48;5.35;;;;;;;21.43;27.48;95785.03;5034507;28;20313;-84